createdAt,value
2023-04-08T00:01:23.240Z,17.15
2023-04-08T00:03:50.469Z,17.98
2023-04-08T00:06:17.500Z,17.52
2023-04-08T00:08:44.463Z,18.13
2023-04-08T00:11:11.586Z,16.15
2023-04-08T00:13:38.689Z,16.60
2023-04-08T00:16:05.839Z,17.48
2023-04-08T00:18:32.748Z,16.17
2023-04-08T00:21:00.116Z,16.58
2023-04-08T00:23:27.057Z,18.13
2023-04-08T00:25:54.052Z,16.90
2023-04-08T00:28:21.372Z,16.80
2023-04-08T00:30:48.338Z,17.25
2023-04-08T00:33:15.351Z,16.92
2023-04-08T00:35:42.381Z,18.63
2023-04-08T00:38:09.797Z,17.63
2023-04-08T00:40:36.863Z,18.25
2023-04-08T00:43:03.735Z,16.52
2023-04-08T00:45:30.672Z,17.25
2023-04-08T00:47:57.769Z,18.58
2023-04-08T00:50:24.930Z,16.35
2023-04-08T00:52:51.890Z,16.25
2023-04-08T00:55:18.796Z,17.20
2023-04-08T00:57:46.908Z,16.38
2023-04-08T01:00:15.027Z,16.77
2023-04-08T01:02:59.602Z,16.80
2023-04-08T01:05:47.769Z,15.88
2023-04-08T01:08:15.912Z,15.57
2023-04-08T01:10:45.788Z,15.90
2023-04-08T01:13:17.810Z,16.30
2023-04-08T01:15:46.260Z,14.98
2023-04-08T01:18:16.048Z,16.02
2023-04-08T01:20:44.486Z,14.82
2023-04-08T01:23:33.129Z,14.40
2023-04-08T01:26:00.141Z,14.40
2023-04-08T01:28:29.743Z,15.55
2023-04-08T01:30:58.472Z,16.40
2023-04-08T01:33:27.734Z,16.38
2023-04-08T01:35:56.959Z,15.63
2023-04-08T01:38:26.638Z,16.33
2023-04-08T01:40:55.820Z,16.63
2023-04-08T01:43:24.565Z,15.38
2023-04-08T01:45:54.646Z,16.17
2023-04-08T01:48:22.300Z,14.40
2023-04-08T01:50:51.359Z,16.52
2023-04-08T01:53:18.552Z,15.98
2023-04-08T01:55:46.979Z,17.33
2023-04-08T01:58:20.747Z,16.25
2023-04-08T02:00:48.520Z,16.35
2023-04-08T02:03:18.808Z,18.52
2023-04-08T02:05:46.134Z,16.77
2023-04-08T02:08:13.343Z,18.92
2023-04-08T02:10:40.900Z,18.17
2023-04-08T02:13:08.430Z,18.58
2023-04-08T02:15:38.323Z,17.80
2023-04-08T02:18:24.416Z,19.70
2023-04-08T02:21:13.537Z,19.83
2023-04-08T02:23:42.482Z,19.88
2023-04-08T02:26:19.149Z,21.08
2023-04-08T02:28:48.745Z,21.50
2023-04-08T02:31:19.478Z,22.45
2023-04-08T02:33:46.811Z,21.52
2023-04-08T02:36:15.737Z,21.17
2023-04-08T02:38:42.711Z,20.45
2023-04-08T02:41:09.627Z,19.85
2023-04-08T02:43:36.982Z,22.10
2023-04-08T02:46:04.346Z,22.92
2023-04-08T02:48:31.728Z,21.50
2023-04-08T02:50:58.664Z,22.25
2023-04-08T02:53:25.787Z,21.92
2023-04-08T02:55:52.750Z,20.17
2023-04-08T02:58:19.830Z,22.65
2023-04-08T03:00:46.804Z,24.65
2023-04-08T03:03:13.848Z,23.92
2023-04-08T03:05:40.976Z,21.50
2023-04-08T03:08:07.993Z,23.05
2023-04-08T03:10:35.029Z,21.30
2023-04-08T03:13:02.037Z,24.40
2023-04-08T03:15:29.090Z,22.90
2023-04-08T03:17:56.244Z,23.02
2023-04-08T03:20:23.324Z,24.15
2023-04-08T03:22:50.325Z,25.13
2023-04-08T03:25:17.334Z,24.33
2023-04-08T03:27:44.465Z,23.67
2023-04-08T03:30:11.817Z,22.92
2023-04-08T03:32:39.073Z,22.38
2023-04-08T03:35:06.688Z,23.17
2023-04-08T03:37:33.676Z,21.15
2023-04-08T03:40:00.699Z,21.48
2023-04-08T03:42:27.678Z,22.13
2023-04-08T03:44:54.627Z,22.90
2023-04-08T03:47:21.610Z,23.50
2023-04-08T03:49:48.471Z,24.13
2023-04-08T03:52:15.463Z,22.20
2023-04-08T03:54:42.399Z,22.88
2023-04-08T03:57:09.291Z,25.38
2023-04-08T03:59:36.930Z,24.52
2023-04-08T04:02:03.831Z,24.48
2023-04-08T04:04:30.994Z,25.23
2023-04-08T04:06:57.962Z,23.88
2023-04-08T04:09:24.930Z,24.27
2023-04-08T04:11:51.867Z,22.35
2023-04-08T04:14:18.824Z,23.80
2023-04-08T04:16:45.828Z,25.38
2023-04-08T04:19:12.810Z,27.00
2023-04-08T04:21:40.055Z,26.77
2023-04-08T04:24:06.976Z,26.10
2023-04-08T04:26:33.912Z,27.98
2023-04-08T04:29:00.859Z,28.40
2023-04-08T04:31:27.887Z,27.75
2023-04-08T04:33:55.261Z,28.33
2023-04-08T04:36:22.362Z,29.48
2023-04-08T04:38:51.248Z,27.98
2023-04-08T04:41:18.649Z,28.13
2023-04-08T04:43:45.860Z,29.00
2023-04-08T04:46:12.801Z,27.55
2023-04-08T04:48:39.804Z,28.17
2023-04-08T04:51:07.721Z,28.60
2023-04-08T04:53:34.792Z,30.17
2023-04-08T04:56:02.144Z,28.17
2023-04-08T04:58:29.665Z,27.70
2023-04-08T05:00:57.082Z,26.77
2023-04-08T05:03:24.158Z,27.55
2023-04-08T05:05:52.703Z,28.60
2023-04-08T05:08:20.218Z,26.20
2023-04-08T05:10:47.148Z,25.58
2023-04-08T05:13:14.125Z,24.13
2023-04-08T05:15:41.255Z,24.90
2023-04-08T05:18:08.201Z,24.88
2023-04-08T05:20:35.160Z,24.92
2023-04-08T05:23:02.115Z,23.30
2023-04-08T05:25:30.651Z,22.65
2023-04-08T05:27:57.676Z,23.67
2023-04-08T05:30:24.680Z,23.67
2023-04-08T05:32:51.588Z,24.38
2023-04-08T05:35:18.713Z,24.63
2023-04-08T05:37:45.810Z,24.33
2023-04-08T05:40:12.847Z,24.85
2023-04-08T05:42:39.750Z,24.40
2023-04-08T05:45:07.321Z,24.30
2023-04-08T05:47:34.423Z,24.40
2023-04-08T05:50:01.445Z,22.60
2023-04-08T05:52:28.489Z,23.98
2023-04-08T05:54:55.564Z,22.75
2023-04-08T05:57:22.421Z,22.55
2023-04-08T05:59:49.334Z,22.88
2023-04-08T06:02:16.460Z,21.77
2023-04-08T06:04:43.588Z,23.98
2023-04-08T06:07:11.273Z,22.92
2023-04-08T06:09:38.232Z,23.95
2023-04-08T06:12:05.869Z,23.60
2023-04-08T06:14:32.761Z,22.80
2023-04-08T06:16:59.853Z,23.45
2023-04-08T06:19:26.852Z,21.90
2023-04-08T06:21:58.875Z,21.50
2023-04-08T06:24:27.543Z,23.38
2023-04-08T06:26:54.705Z,21.73
2023-04-08T06:29:23.099Z,22.52
2023-04-08T06:31:50.681Z,21.40
2023-04-08T06:34:17.856Z,21.58
2023-04-08T06:36:45.005Z,21.27
2023-04-08T06:39:12.118Z,21.83
2023-04-08T06:41:39.129Z,21.33
2023-04-08T06:44:06.329Z,23.60
2023-04-08T06:46:33.296Z,19.77
2023-04-08T06:49:00.464Z,20.50
2023-04-08T06:51:28.038Z,20.63
2023-04-08T06:53:55.216Z,22.30
2023-04-08T06:56:23.101Z,21.30
2023-04-08T06:58:50.217Z,21.33
2023-04-08T07:01:17.502Z,20.13
2023-04-08T07:03:44.609Z,19.88
2023-04-08T07:06:11.735Z,19.13
2023-04-08T07:08:38.897Z,19.67
2023-04-08T07:11:05.977Z,18.63
2023-04-08T07:13:32.959Z,19.02
2023-04-08T07:16:00.322Z,18.35
2023-04-08T07:18:27.500Z,19.23
2023-04-08T07:20:54.659Z,18.70
2023-04-08T07:23:21.914Z,18.77
2023-04-08T07:25:48.913Z,18.27
2023-04-08T07:28:16.393Z,18.23
2023-04-08T07:30:43.320Z,18.20
2023-04-08T07:33:10.565Z,18.88
2023-04-08T07:35:38.052Z,18.65
2023-04-08T07:38:09.344Z,17.88
2023-04-08T07:40:36.256Z,19.88
2023-04-08T07:43:03.240Z,18.25
2023-04-08T07:45:30.425Z,18.30
2023-04-08T07:47:57.435Z,17.23
2023-04-08T07:50:24.429Z,14.20
2023-04-08T07:52:53.395Z,12.63
2023-04-08T07:55:20.497Z,13.80
2023-04-08T07:57:47.589Z,12.88
2023-04-08T08:00:20.945Z,12.43
2023-04-08T08:02:49.090Z,12.20
2023-04-08T08:05:16.218Z,11.50
2023-04-08T08:07:43.243Z,11.90
2023-04-08T08:10:11.412Z,12.75
2023-04-08T08:12:38.377Z,13.55
2023-04-08T08:15:05.758Z,13.60
2023-04-08T08:17:33.953Z,13.27
2023-04-08T08:20:01.728Z,11.43
2023-04-08T08:22:28.621Z,11.57
2023-04-08T08:24:59.485Z,11.85
2023-04-08T08:27:26.518Z,11.68
2023-04-08T08:29:53.508Z,12.75
2023-04-08T08:32:20.795Z,11.65
2023-04-08T08:34:47.716Z,13.52
2023-04-08T08:37:14.676Z,12.55
2023-04-08T08:39:41.648Z,13.10
2023-04-08T08:42:23.037Z,11.98
2023-04-08T08:44:50.952Z,12.27
2023-04-08T08:47:18.859Z,12.60
2023-04-08T08:49:45.987Z,11.32
2023-04-08T08:52:17.996Z,11.77
2023-04-08T08:54:46.533Z,11.00
2023-04-08T08:57:20.186Z,11.75
2023-04-08T08:59:48.051Z,10.65
2023-04-08T09:02:31.578Z,11.77
2023-04-08T09:05:01.249Z,10.02
2023-04-08T09:07:30.657Z,10.93
2023-04-08T09:09:59.332Z,9.68
2023-04-08T09:12:31.435Z,10.52
2023-04-08T09:15:08.949Z,9.73
2023-04-08T09:17:41.439Z,9.75
2023-04-08T09:20:11.755Z,9.48
2023-04-08T09:23:01.375Z,9.73
2023-04-08T09:25:32.948Z,9.50
2023-04-08T09:28:00.585Z,9.70
2023-04-08T09:30:28.354Z,9.77
2023-04-08T09:32:57.679Z,10.80
2023-04-08T09:35:25.688Z,9.63
2023-04-08T09:37:52.685Z,9.40
2023-04-08T09:40:19.696Z,9.43
2023-04-08T09:42:52.523Z,9.27
2023-04-08T09:45:20.223Z,9.07
2023-04-08T09:48:01.522Z,9.77
2023-04-08T09:50:33.405Z,9.88
2023-04-08T09:53:43.936Z,8.82
2023-04-08T09:56:12.579Z,9.25
2023-04-08T09:58:59.017Z,8.90
2023-04-08T10:01:40.200Z,7.30
2023-04-08T10:04:11.830Z,8.93
2023-04-08T10:06:40.318Z,8.57
2023-04-08T10:09:07.885Z,8.48
2023-04-08T10:11:36.279Z,7.72
2023-04-08T10:14:03.685Z,8.20
2023-04-08T10:16:31.215Z,9.13
2023-04-08T10:18:58.382Z,8.27
2023-04-08T10:21:50.254Z,9.90
2023-04-08T10:24:18.871Z,9.43
2023-04-08T10:26:46.214Z,9.48
2023-04-08T10:29:19.215Z,9.93
2023-04-08T10:31:47.584Z,9.63
2023-04-08T10:34:26.455Z,9.48
2023-04-08T10:36:55.819Z,8.68
2023-04-08T10:39:22.939Z,9.55
2023-04-08T10:41:51.204Z,9.75
2023-04-08T10:44:21.346Z,9.57
2023-04-08T10:46:50.471Z,9.60
2023-04-08T10:49:18.025Z,11.43
2023-04-08T10:51:46.265Z,10.82
2023-04-08T10:54:14.972Z,10.82
2023-04-08T10:56:49.705Z,10.73
2023-04-08T10:59:27.061Z,11.73
2023-04-08T11:01:54.166Z,11.65
2023-04-08T11:04:23.685Z,11.80
2023-04-08T11:06:51.660Z,11.32
2023-04-08T11:09:18.654Z,11.98
2023-04-08T11:11:46.423Z,11.82
2023-04-08T11:14:13.932Z,12.60
2023-04-08T11:16:41.176Z,13.55
2023-04-08T11:19:09.021Z,14.10
2023-04-08T11:21:37.623Z,12.35
2023-04-08T11:24:10.201Z,12.82
2023-04-08T11:26:37.952Z,13.05
2023-04-08T11:29:06.537Z,13.63
2023-04-08T11:31:34.668Z,12.48
2023-04-08T11:34:01.899Z,14.27
2023-04-08T11:36:30.214Z,14.38
2023-04-08T11:38:57.797Z,14.13
2023-04-08T11:41:24.788Z,13.82
2023-04-08T11:43:56.460Z,14.90
2023-04-08T11:46:24.221Z,13.52
2023-04-08T11:48:58.639Z,13.52
2023-04-08T11:53:55.412Z,14.43
2023-04-08T11:56:23.985Z,13.82
2023-04-08T11:58:51.991Z,13.40
2023-04-08T12:01:19.893Z,13.38
2023-04-08T12:04:01.464Z,13.30
2023-04-08T12:06:29.278Z,13.05
2023-04-08T12:08:56.870Z,14.07
2023-04-08T12:11:24.388Z,13.40
2023-04-08T12:13:52.833Z,12.82
2023-04-08T12:16:20.799Z,13.27
2023-04-08T12:18:47.959Z,14.18
2023-04-08T12:21:14.997Z,14.60
2023-04-08T12:23:41.934Z,14.80
2023-04-08T12:26:09.144Z,15.57
2023-04-08T12:28:36.422Z,15.57
2023-04-08T12:31:03.663Z,14.65
2023-04-08T12:33:31.060Z,15.18
2023-04-08T12:36:01.523Z,16.50
2023-04-08T12:38:28.650Z,15.82
2023-04-08T12:40:56.188Z,17.00
2023-04-08T12:43:24.022Z,16.63
2023-04-08T12:45:51.850Z,15.70
2023-04-08T12:48:18.885Z,16.42
2023-04-08T12:50:45.784Z,18.30
2023-04-08T12:53:12.768Z,18.23
2023-04-08T12:55:39.966Z,19.50
2023-04-08T12:58:06.981Z,19.33
2023-04-08T13:00:33.961Z,18.67
2023-04-08T13:03:01.127Z,19.13
2023-04-08T13:05:42.110Z,19.80
2023-04-08T13:08:12.492Z,19.08
2023-04-08T13:10:39.571Z,18.42
2023-04-08T13:13:06.821Z,19.10
2023-04-08T13:15:33.883Z,18.23
2023-04-08T13:18:01.087Z,19.55
2023-04-08T13:20:28.301Z,19.25
2023-04-08T13:22:55.302Z,19.20
2023-04-08T13:25:22.379Z,18.58
2023-04-08T13:27:49.234Z,19.10
2023-04-08T13:30:16.628Z,21.77
2023-04-08T13:32:43.605Z,20.08
2023-04-08T13:35:10.551Z,20.70
2023-04-08T13:37:37.649Z,20.05
2023-04-08T13:40:05.202Z,19.25
2023-04-08T13:42:32.833Z,22.10
2023-04-08T13:44:59.831Z,20.83
2023-04-08T13:47:29.575Z,20.17
2023-04-08T13:49:56.593Z,21.17
2023-04-08T13:52:23.523Z,22.08
2023-04-08T13:54:50.492Z,22.65
2023-04-08T13:57:17.434Z,22.08
2023-04-08T13:59:44.924Z,18.60
2023-04-08T14:02:12.964Z,19.08
2023-04-08T14:04:40.419Z,19.90
2023-04-08T14:07:07.504Z,17.08
2023-04-08T14:09:34.479Z,15.93
2023-04-08T14:12:01.512Z,14.23
2023-04-08T14:14:28.883Z,14.77
2023-04-08T14:16:55.896Z,13.43
2023-04-08T14:19:23.198Z,10.93
2023-04-08T14:21:50.519Z,11.48
2023-04-08T14:24:17.545Z,11.45
2023-04-08T14:26:44.572Z,11.93
2023-04-08T14:29:11.926Z,11.18
2023-04-08T14:31:38.885Z,10.27
2023-04-08T14:34:05.878Z,10.65
2023-04-08T14:36:33.240Z,9.82
2023-04-08T14:39:00.384Z,9.75
2023-04-08T14:41:27.446Z,9.38
2023-04-08T14:43:54.686Z,9.00
2023-04-08T14:46:21.913Z,8.93
2023-04-08T14:48:49.080Z,8.65
2023-04-08T14:51:16.219Z,9.00
2023-04-08T14:53:43.124Z,8.90
2023-04-08T14:56:10.479Z,8.25
2023-04-08T14:58:37.516Z,8.60
2023-04-08T15:01:04.819Z,7.95
2023-04-08T15:03:32.093Z,8.57
2023-04-08T15:05:59.814Z,9.05
2023-04-08T15:08:26.804Z,8.48
2023-04-08T15:10:53.880Z,8.45
2023-04-08T15:13:20.859Z,8.63
2023-04-08T15:15:47.941Z,8.65
2023-04-08T15:18:14.898Z,8.90
2023-04-08T15:20:42.201Z,9.20
2023-04-08T15:23:09.182Z,9.15
2023-04-08T15:25:36.275Z,9.65
2023-04-08T15:28:03.556Z,8.40
2023-04-08T15:30:35.398Z,10.65
2023-04-08T15:33:03.922Z,9.07
2023-04-08T15:35:31.635Z,8.68
2023-04-08T15:37:58.908Z,8.50
2023-04-08T15:40:26.007Z,9.23
2023-04-08T15:42:53.163Z,8.75
2023-04-08T15:45:20.691Z,8.52
2023-04-08T15:47:47.727Z,8.27
2023-04-08T15:50:15.306Z,8.98
2023-04-08T15:52:42.623Z,8.80
2023-04-08T15:55:09.798Z,8.90
2023-04-08T15:57:37.274Z,9.80
2023-04-08T16:00:11.228Z,9.23
2023-04-08T16:02:38.773Z,9.60
2023-04-08T16:05:06.307Z,8.57
2023-04-08T16:07:33.289Z,8.82
2023-04-08T16:10:00.236Z,9.40
2023-04-08T16:12:27.236Z,10.00
2023-04-08T16:14:54.351Z,9.57
2023-04-08T16:17:21.999Z,9.82
2023-04-08T16:19:51.798Z,9.52
2023-04-08T16:22:18.935Z,8.88
2023-04-08T16:24:46.261Z,9.15
2023-04-08T16:27:13.190Z,9.65
2023-04-08T16:29:40.617Z,9.88
2023-04-08T16:32:08.969Z,9.73
2023-04-08T16:34:36.278Z,9.38
2023-04-08T16:37:03.348Z,10.30
2023-04-08T16:39:30.345Z,9.88
2023-04-08T16:41:57.348Z,9.15
2023-04-08T16:44:24.349Z,9.43
2023-04-08T16:46:51.494Z,8.93
2023-04-08T16:49:18.592Z,8.55
2023-04-08T16:51:45.707Z,8.52
2023-04-08T16:54:12.662Z,9.27
2023-04-08T16:56:44.535Z,8.65
2023-04-08T16:59:13.119Z,9.20
2023-04-08T17:01:40.244Z,9.95
2023-04-08T17:04:07.442Z,9.35
2023-04-08T17:06:35.892Z,9.52
2023-04-08T17:12:43.747Z,8.57
2023-04-08T17:15:11.492Z,8.70
2023-04-08T17:17:38.764Z,9.13
2023-04-08T17:20:06.418Z,9.80
2023-04-08T17:22:33.692Z,10.05
2023-04-08T17:25:00.918Z,10.57
2023-04-08T17:27:28.020Z,9.20
2023-04-08T17:29:58.092Z,8.30
2023-04-08T17:32:25.413Z,9.13
2023-04-08T17:34:52.900Z,9.68
2023-04-08T17:37:20.370Z,10.20
2023-04-08T17:39:47.620Z,9.63
2023-04-08T17:42:14.473Z,9.18
2023-04-08T17:44:42.691Z,9.02
2023-04-08T17:47:09.639Z,8.82
2023-04-08T17:49:36.680Z,8.40
2023-04-08T17:52:03.611Z,9.48
2023-04-08T17:54:34.502Z,12.63
2023-04-08T17:57:04.211Z,11.90
2023-04-08T17:59:31.324Z,12.02
2023-04-08T18:01:58.599Z,13.40
2023-04-08T18:04:25.613Z,12.18
2023-04-08T18:10:40.316Z,11.95
2023-04-08T18:13:11.260Z,13.40
2023-04-08T18:15:39.223Z,12.57
2023-04-08T18:18:06.284Z,12.32
2023-04-08T18:20:37.841Z,13.15
2023-04-08T18:23:05.043Z,12.77
2023-04-08T18:25:32.568Z,13.07
2023-04-08T18:27:59.672Z,13.15
2023-04-08T18:30:26.833Z,13.00
2023-04-08T18:32:53.876Z,15.13
2023-04-08T18:35:21.187Z,14.15
2023-04-08T18:37:48.177Z,15.00
2023-04-08T18:40:15.580Z,12.10
2023-04-08T18:42:42.600Z,12.32
2023-04-08T18:45:10.054Z,11.77
2023-04-08T18:47:37.950Z,11.43
2023-04-08T18:50:05.325Z,14.93
2023-04-08T18:52:32.360Z,13.95
2023-04-08T18:55:02.847Z,15.07
2023-04-08T18:57:29.853Z,16.63
2023-04-08T18:59:56.826Z,15.35
2023-04-08T19:02:23.931Z,14.65
2023-04-08T19:04:50.964Z,14.45
2023-04-08T19:07:18.061Z,14.55
2023-04-08T19:13:32.277Z,14.05
2023-04-08T19:15:59.233Z,13.10
2023-04-08T19:18:26.164Z,14.35
2023-04-08T19:20:53.194Z,12.88
2023-04-08T19:23:20.174Z,13.30
2023-04-08T19:25:47.463Z,14.07
2023-04-08T19:28:14.555Z,12.95
2023-04-08T19:30:41.714Z,12.98
2023-04-08T19:33:11.524Z,12.38
2023-04-08T19:35:38.611Z,14.05
2023-04-08T19:38:05.915Z,13.85
2023-04-08T19:40:32.844Z,13.05
2023-04-08T19:42:59.738Z,14.57
2023-04-08T19:45:27.160Z,13.18
2023-04-08T19:47:54.200Z,13.50
2023-04-08T19:50:22.345Z,13.75
2023-04-08T19:52:49.322Z,13.77
2023-04-08T19:55:16.448Z,15.77
2023-04-08T19:57:43.512Z,19.35
2023-04-08T20:00:13.588Z,17.98
2023-04-08T20:02:41.484Z,17.63
2023-04-08T20:05:14.689Z,21.65
2023-04-08T20:07:41.972Z,19.52
2023-04-08T20:10:09.568Z,19.05
2023-04-08T20:16:31.994Z,20.20
2023-04-08T20:18:59.077Z,21.30
2023-04-08T20:21:26.766Z,20.20
2023-04-08T20:23:53.908Z,18.33
2023-04-08T20:26:21.595Z,18.10
2023-04-08T20:28:48.650Z,17.33
2023-04-08T20:31:16.258Z,19.60
2023-04-08T20:33:44.351Z,18.38
2023-04-08T20:36:12.498Z,19.27
2023-04-08T20:38:40.601Z,19.88
2023-04-08T20:41:07.473Z,18.27
2023-04-08T20:43:34.468Z,18.67
2023-04-08T20:46:01.408Z,20.33
2023-04-08T20:48:29.557Z,17.70
2023-04-08T20:50:57.581Z,18.58
2023-04-08T20:53:24.844Z,18.88
2023-04-08T20:55:52.370Z,20.20
2023-04-08T20:58:19.333Z,19.55
2023-04-08T21:00:47.714Z,19.02
2023-04-08T21:03:15.047Z,19.23
2023-04-08T21:05:42.091Z,18.15
2023-04-08T21:08:09.451Z,20.15
2023-04-08T21:10:36.413Z,21.25
2023-04-08T21:13:03.392Z,20.67
2023-04-08T21:15:30.362Z,21.70
2023-04-08T21:17:57.298Z,22.08
2023-04-08T21:20:24.289Z,22.02
2023-04-08T21:22:51.193Z,21.13
2023-04-08T21:25:18.649Z,23.10
2023-04-08T21:27:45.692Z,20.13
2023-04-08T21:30:12.897Z,20.42
2023-04-08T21:32:39.954Z,22.67
2023-04-08T21:35:07.226Z,24.77
2023-04-08T21:37:34.728Z,24.80
2023-04-08T21:40:01.619Z,25.65
2023-04-08T21:42:28.951Z,24.48
2023-04-08T21:44:56.024Z,23.13
2023-04-08T21:47:22.974Z,24.75
2023-04-08T21:49:50.203Z,23.73
2023-04-08T21:52:17.918Z,23.73
2023-04-08T21:54:48.354Z,21.73
2023-04-08T21:57:15.395Z,20.48
2023-04-08T21:59:42.376Z,21.77
2023-04-08T22:02:11.295Z,20.73
2023-04-08T22:04:38.726Z,18.98
2023-04-08T22:07:05.667Z,17.52
2023-04-08T22:09:32.714Z,17.98
2023-04-08T22:11:59.635Z,17.05
2023-04-08T22:14:26.610Z,18.55
2023-04-08T22:16:53.602Z,18.60
2023-04-08T22:19:20.817Z,16.35
2023-04-08T22:21:47.815Z,16.98
2023-04-08T22:24:14.695Z,15.95
2023-04-08T22:26:41.854Z,17.02
2023-04-08T22:29:08.702Z,19.50
2023-04-08T22:31:35.687Z,16.75
2023-04-08T22:34:02.542Z,16.05
2023-04-08T22:36:29.584Z,15.70
2023-04-08T22:38:56.740Z,13.90
2023-04-08T22:41:24.321Z,14.68
2023-04-08T22:43:51.508Z,14.93
2023-04-08T22:46:18.719Z,13.57
2023-04-08T22:48:46.137Z,14.15
2023-04-08T22:51:13.566Z,13.25
2023-04-08T22:53:40.743Z,14.85
2023-04-08T22:56:07.751Z,13.75
2023-04-08T22:58:34.769Z,13.80
2023-04-08T23:01:02.599Z,13.82
2023-04-08T23:03:29.461Z,13.77
2023-04-08T23:05:56.363Z,15.18
2023-04-08T23:08:23.281Z,14.73
2023-04-08T23:10:50.227Z,15.15
2023-04-08T23:13:17.141Z,13.70
2023-04-08T23:15:44.107Z,13.15
2023-04-08T23:18:11.078Z,15.15
2023-04-08T23:20:38.039Z,15.52
2023-04-08T23:23:05.064Z,14.93
2023-04-08T23:25:36.420Z,18.10
2023-04-08T23:28:03.330Z,18.58
2023-04-08T23:30:30.481Z,18.00
2023-04-08T23:32:57.458Z,18.58
2023-04-08T23:35:24.372Z,20.08
2023-04-08T23:37:51.264Z,18.15
2023-04-08T23:40:18.267Z,17.70
2023-04-08T23:42:45.426Z,18.83
2023-04-08T23:45:12.633Z,18.98
2023-04-08T23:47:39.587Z,19.45
2023-04-08T23:50:07.611Z,20.05
2023-04-08T23:52:34.561Z,18.25
2023-04-08T23:55:01.446Z,19.60
2023-04-08T23:57:28.375Z,21.00
2023-04-08T23:59:55.432Z,20.75
